sensor_id;sensor_type;location;lat;lon;timestamp;P1;durP1;ratioP1;P2;durP2;ratioP2
38785;SDS011;24535;45.508;12.252;2022-07-23T00:00:33;19.92;;;15.85;;
38785;SDS011;24535;45.508;12.252;2022-07-23T00:02:58;18.52;;;15.52;;
38785;SDS011;24535;45.508;12.252;2022-07-23T00:05:24;19.15;;;17.23;;
38785;SDS011;24535;45.508;12.252;2022-07-23T00:07:50;19.33;;;17.52;;
38785;SDS011;24535;45.508;12.252;2022-07-23T00:10:15;19.20;;;17.17;;
38785;SDS011;24535;45.508;12.252;2022-07-23T00:12:41;17.80;;;16.10;;
38785;SDS011;24535;45.508;12.252;2022-07-23T00:15:10;19.70;;;15.85;;
38785;SDS011;24535;45.508;12.252;2022-07-23T00:20:51;20.02;;;17.92;;
38785;SDS011;24535;45.508;12.252;2022-07-23T00:23:17;18.98;;;17.02;;
38785;SDS011;24535;45.508;12.252;2022-07-23T00:25:42;20.33;;;18.30;;
38785;SDS011;24535;45.508;12.252;2022-07-23T00:28:13;20.23;;;18.25;;
38785;SDS011;24535;45.508;12.252;2022-07-23T00:30:38;20.65;;;18.67;;
38785;SDS011;24535;45.508;12.252;2022-07-23T00:33:05;21.92;;;19.55;;
38785;SDS011;24535;45.508;12.252;2022-07-23T00:35:36;22.75;;;20.65;;
38785;SDS011;24535;45.508;12.252;2022-07-23T00:38:08;21.90;;;19.65;;
38785;SDS011;24535;45.508;12.252;2022-07-23T00:40:35;30.63;;;20.27;;
38785;SDS011;24535;45.508;12.252;2022-07-23T00:43:04;25.20;;;22.60;;
38785;SDS011;24535;45.508;12.252;2022-07-23T00:45:30;23.88;;;21.25;;
38785;SDS011;24535;45.508;12.252;2022-07-23T00:47:56;22.60;;;20.58;;
38785;SDS011;24535;45.508;12.252;2022-07-23T00:50:25;23.63;;;21.13;;
38785;SDS011;24535;45.508;12.252;2022-07-23T00:52:51;23.40;;;21.13;;
38785;SDS011;24535;45.508;12.252;2022-07-23T00:55:17;22.80;;;20.60;;
38785;SDS011;24535;45.508;12.252;2022-07-23T00:57:43;24.02;;;21.52;;
38785;SDS011;24535;45.508;12.252;2022-07-23T01:00:12;23.08;;;20.52;;
38785;SDS011;24535;45.508;12.252;2022-07-23T01:02:39;22.95;;;20.63;;
38785;SDS011;24535;45.508;12.252;2022-07-23T01:08:26;20.88;;;18.90;;
38785;SDS011;24535;45.508;12.252;2022-07-23T01:10:52;22.98;;;20.17;;
38785;SDS011;24535;45.508;12.252;2022-07-23T01:13:18;22.80;;;20.55;;
38785;SDS011;24535;45.508;12.252;2022-07-23T01:15:47;22.75;;;20.67;;
38785;SDS011;24535;45.508;12.252;2022-07-23T01:18:12;24.17;;;21.58;;
38785;SDS011;24535;45.508;12.252;2022-07-23T01:20:38;22.45;;;20.23;;
38785;SDS011;24535;45.508;12.252;2022-07-23T01:23:07;23.73;;;21.52;;
38785;SDS011;24535;45.508;12.252;2022-07-23T01:25:32;21.52;;;19.27;;
38785;SDS011;24535;45.508;12.252;2022-07-23T01:27:58;19.70;;;17.83;;
38785;SDS011;24535;45.508;12.252;2022-07-23T01:30:23;21.83;;;18.70;;
38785;SDS011;24535;45.508;12.252;2022-07-23T01:32:49;19.20;;;17.40;;
38785;SDS011;24535;45.508;12.252;2022-07-23T01:35:14;23.52;;;20.95;;
38785;SDS011;24535;45.508;12.252;2022-07-23T01:37:40;22.55;;;20.38;;
38785;SDS011;24535;45.508;12.252;2022-07-23T01:40:05;23.08;;;20.88;;
38785;SDS011;24535;45.508;12.252;2022-07-23T01:42:31;25.70;;;22.08;;
38785;SDS011;24535;45.508;12.252;2022-07-23T01:44:57;23.23;;;21.13;;
38785;SDS011;24535;45.508;12.252;2022-07-23T01:47:23;26.10;;;23.77;;
38785;SDS011;24535;45.508;12.252;2022-07-23T01:49:48;27.65;;;24.83;;
38785;SDS011;24535;45.508;12.252;2022-07-23T01:52:14;27.38;;;24.48;;
38785;SDS011;24535;45.508;12.252;2022-07-23T01:54:40;29.83;;;27.05;;
38785;SDS011;24535;45.508;12.252;2022-07-23T01:57:06;28.83;;;25.88;;
38785;SDS011;24535;45.508;12.252;2022-07-23T01:59:32;27.88;;;25.08;;
38785;SDS011;24535;45.508;12.252;2022-07-23T02:01:57;23.80;;;21.48;;
38785;SDS011;24535;45.508;12.252;2022-07-23T02:04:23;28.23;;;25.48;;
38785;SDS011;24535;45.508;12.252;2022-07-23T02:06:50;23.73;;;21.38;;
38785;SDS011;24535;45.508;12.252;2022-07-23T02:09:16;21.75;;;19.50;;
38785;SDS011;24535;45.508;12.252;2022-07-23T02:11:42;23.65;;;21.25;;
38785;SDS011;24535;45.508;12.252;2022-07-23T02:14:08;23.25;;;21.05;;
38785;SDS011;24535;45.508;12.252;2022-07-23T02:16:43;23.48;;;21.45;;
38785;SDS011;24535;45.508;12.252;2022-07-23T02:21:39;25.80;;;23.60;;
38785;SDS011;24535;45.508;12.252;2022-07-23T02:26:34;29.00;;;25.10;;
38785;SDS011;24535;45.508;12.252;2022-07-23T02:29:00;27.63;;;25.00;;
38785;SDS011;24535;45.508;12.252;2022-07-23T02:31:27;27.25;;;24.55;;
38785;SDS011;24535;45.508;12.252;2022-07-23T02:33:54;25.33;;;22.80;;
38785;SDS011;24535;45.508;12.252;2022-07-23T02:36:20;27.13;;;24.67;;
38785;SDS011;24535;45.508;12.252;2022-07-23T02:38:46;22.35;;;20.15;;
38785;SDS011;24535;45.508;12.252;2022-07-23T02:41:12;26.65;;;23.52;;
38785;SDS011;24535;45.508;12.252;2022-07-23T02:43:37;28.02;;;25.02;;
38785;SDS011;24535;45.508;12.252;2022-07-23T02:46:03;26.70;;;24.17;;
38785;SDS011;24535;45.508;12.252;2022-07-23T02:48:29;26.48;;;23.85;;
38785;SDS011;24535;45.508;12.252;2022-07-23T02:50:54;25.02;;;22.63;;
38785;SDS011;24535;45.508;12.252;2022-07-23T02:53:21;26.17;;;23.67;;
38785;SDS011;24535;45.508;12.252;2022-07-23T02:55:47;28.48;;;24.95;;
38785;SDS011;24535;45.508;12.252;2022-07-23T02:58:12;24.60;;;22.40;;
38785;SDS011;24535;45.508;12.252;2022-07-23T03:00:40;25.98;;;23.73;;
38785;SDS011;24535;45.508;12.252;2022-07-23T03:03:21;24.60;;;22.13;;
38785;SDS011;24535;45.508;12.252;2022-07-23T03:05:47;20.17;;;18.17;;
38785;SDS011;24535;45.508;12.252;2022-07-23T03:08:13;23.40;;;21.00;;
38785;SDS011;24535;45.508;12.252;2022-07-23T03:10:44;25.45;;;23.15;;
38785;SDS011;24535;45.508;12.252;2022-07-23T03:13:09;22.55;;;20.20;;
38785;SDS011;24535;45.508;12.252;2022-07-23T03:15:35;21.20;;;19.13;;
38785;SDS011;24535;45.508;12.252;2022-07-23T03:18:00;24.42;;;22.02;;
38785;SDS011;24535;45.508;12.252;2022-07-23T03:20:26;24.75;;;22.25;;
38785;SDS011;24535;45.508;12.252;2022-07-23T03:22:51;25.27;;;22.75;;
38785;SDS011;24535;45.508;12.252;2022-07-23T03:25:19;24.83;;;22.42;;
38785;SDS011;24535;45.508;12.252;2022-07-23T03:27:45;25.45;;;22.15;;
38785;SDS011;24535;45.508;12.252;2022-07-23T03:30:10;23.05;;;20.65;;
38785;SDS011;24535;45.508;12.252;2022-07-23T03:32:37;23.08;;;20.45;;
38785;SDS011;24535;45.508;12.252;2022-07-23T03:35:05;22.27;;;20.08;;
38785;SDS011;24535;45.508;12.252;2022-07-23T03:37:31;22.55;;;20.27;;
38785;SDS011;24535;45.508;12.252;2022-07-23T03:39:57;23.05;;;20.70;;
38785;SDS011;24535;45.508;12.252;2022-07-23T03:42:22;20.88;;;18.95;;
38785;SDS011;24535;45.508;12.252;2022-07-23T03:44:48;23.23;;;20.60;;
38785;SDS011;24535;45.508;12.252;2022-07-23T03:47:13;24.65;;;20.83;;
38785;SDS011;24535;45.508;12.252;2022-07-23T03:49:40;23.30;;;21.00;;
38785;SDS011;24535;45.508;12.252;2022-07-23T03:54:34;26.38;;;20.27;;
38785;SDS011;24535;45.508;12.252;2022-07-23T03:56:59;21.80;;;19.70;;
38785;SDS011;24535;45.508;12.252;2022-07-23T03:59:25;22.25;;;19.15;;
38785;SDS011;24535;45.508;12.252;2022-07-23T04:01:50;22.15;;;19.92;;
38785;SDS011;24535;45.508;12.252;2022-07-23T04:04:16;22.40;;;20.13;;
38785;SDS011;24535;45.508;12.252;2022-07-23T04:06:41;22.77;;;19.73;;
38785;SDS011;24535;45.508;12.252;2022-07-23T04:09:07;21.55;;;19.27;;
38785;SDS011;24535;45.508;12.252;2022-07-23T04:17:24;19.60;;;17.23;;
38785;SDS011;24535;45.508;12.252;2022-07-23T04:19:50;20.52;;;18.67;;
38785;SDS011;24535;45.508;12.252;2022-07-23T04:22:16;23.17;;;19.60;;
38785;SDS011;24535;45.508;12.252;2022-07-23T04:24:41;20.65;;;18.65;;
38785;SDS011;24535;45.508;12.252;2022-07-23T04:27:09;18.90;;;17.02;;
38785;SDS011;24535;45.508;12.252;2022-07-23T04:29:35;22.77;;;19.20;;
38785;SDS011;24535;45.508;12.252;2022-07-23T04:32:03;24.35;;;21.83;;
38785;SDS011;24535;45.508;12.252;2022-07-23T04:34:29;26.02;;;20.90;;
38785;SDS011;24535;45.508;12.252;2022-07-23T04:36:55;22.45;;;20.25;;
38785;SDS011;24535;45.508;12.252;2022-07-23T04:39:20;21.35;;;19.10;;
38785;SDS011;24535;45.508;12.252;2022-07-23T04:44:47;20.38;;;17.55;;
38785;SDS011;24535;45.508;12.252;2022-07-23T04:47:12;26.27;;;20.67;;
38785;SDS011;24535;45.508;12.252;2022-07-23T04:49:38;22.15;;;19.85;;
38785;SDS011;24535;45.508;12.252;2022-07-23T04:52:03;22.35;;;19.52;;
38785;SDS011;24535;45.508;12.252;2022-07-23T04:54:29;20.95;;;18.70;;
38785;SDS011;24535;45.508;12.252;2022-07-23T04:59:25;23.55;;;21.08;;
38785;SDS011;24535;45.508;12.252;2022-07-23T05:01:51;28.48;;;20.20;;
38785;SDS011;24535;45.508;12.252;2022-07-23T05:04:16;22.20;;;19.98;;
38785;SDS011;24535;45.508;12.252;2022-07-23T05:06:42;27.05;;;21.08;;
38785;SDS011;24535;45.508;12.252;2022-07-23T05:09:07;24.98;;;22.73;;
38785;SDS011;24535;45.508;12.252;2022-07-23T05:11:33;29.25;;;22.27;;
38785;SDS011;24535;45.508;12.252;2022-07-23T05:13:58;25.85;;;23.10;;
38785;SDS011;24535;45.508;12.252;2022-07-23T05:16:24;25.55;;;23.02;;
38785;SDS011;24535;45.508;12.252;2022-07-23T05:18:49;24.30;;;21.90;;
38785;SDS011;24535;45.508;12.252;2022-07-23T05:21:15;24.65;;;22.25;;
38785;SDS011;24535;45.508;12.252;2022-07-23T05:23:42;25.33;;;22.23;;
38785;SDS011;24535;45.508;12.252;2022-07-23T05:26:08;18.05;;;16.33;;
38785;SDS011;24535;45.508;12.252;2022-07-23T05:28:33;23.42;;;21.20;;
38785;SDS011;24535;45.508;12.252;2022-07-23T05:30:59;24.38;;;21.85;;
38785;SDS011;24535;45.508;12.252;2022-07-23T05:33:24;24.92;;;22.25;;
38785;SDS011;24535;45.508;12.252;2022-07-23T05:35:50;27.80;;;24.90;;
38785;SDS011;24535;45.508;12.252;2022-07-23T05:38:15;27.63;;;24.65;;
38785;SDS011;24535;45.508;12.252;2022-07-23T05:40:40;25.77;;;23.27;;
38785;SDS011;24535;45.508;12.252;2022-07-23T05:43:06;27.40;;;24.60;;
38785;SDS011;24535;45.508;12.252;2022-07-23T05:45:31;26.20;;;23.70;;
38785;SDS011;24535;45.508;12.252;2022-07-23T05:47:57;26.98;;;24.38;;
38785;SDS011;24535;45.508;12.252;2022-07-23T05:50:28;28.10;;;25.48;;
38785;SDS011;24535;45.508;12.252;2022-07-23T05:52:54;33.45;;;30.20;;
38785;SDS011;24535;45.508;12.252;2022-07-23T05:55:22;30.17;;;27.13;;
38785;SDS011;24535;45.508;12.252;2022-07-23T05:57:51;31.17;;;28.27;;
38785;SDS011;24535;45.508;12.252;2022-07-23T06:00:16;31.98;;;28.52;;
38785;SDS011;24535;45.508;12.252;2022-07-23T06:02:42;32.25;;;28.90;;
38785;SDS011;24535;45.508;12.252;2022-07-23T06:05:07;27.98;;;25.23;;
38785;SDS011;24535;45.508;12.252;2022-07-23T06:07:40;23.23;;;20.95;;
38785;SDS011;24535;45.508;12.252;2022-07-23T06:15:52;31.63;;;28.38;;
38785;SDS011;24535;45.508;12.252;2022-07-23T06:18:18;30.50;;;26.98;;
38785;SDS011;24535;45.508;12.252;2022-07-23T06:20:49;28.55;;;25.70;;
38785;SDS011;24535;45.508;12.252;2022-07-23T06:23:15;28.92;;;25.80;;
38785;SDS011;24535;45.508;12.252;2022-07-23T06:25:40;32.00;;;28.60;;
38785;SDS011;24535;45.508;12.252;2022-07-23T06:28:06;31.25;;;26.73;;
38785;SDS011;24535;45.508;12.252;2022-07-23T06:30:31;28.58;;;25.67;;
38785;SDS011;24535;45.508;12.252;2022-07-23T06:32:57;25.33;;;22.75;;
38785;SDS011;24535;45.508;12.252;2022-07-23T06:35:23;29.33;;;24.80;;
38785;SDS011;24535;45.508;12.252;2022-07-23T06:37:48;29.23;;;25.67;;
38785;SDS011;24535;45.508;12.252;2022-07-23T06:40:14;28.60;;;24.13;;
38785;SDS011;24535;45.508;12.252;2022-07-23T06:42:39;28.08;;;24.40;;
38785;SDS011;24535;45.508;12.252;2022-07-23T06:45:05;28.55;;;24.33;;
38785;SDS011;24535;45.508;12.252;2022-07-23T06:47:32;29.10;;;26.10;;
38785;SDS011;24535;45.508;12.252;2022-07-23T06:49:57;29.23;;;26.20;;
38785;SDS011;24535;45.508;12.252;2022-07-23T06:52:32;24.42;;;21.95;;
38785;SDS011;24535;45.508;12.252;2022-07-23T06:55:04;23.80;;;21.45;;
38785;SDS011;24535;45.508;12.252;2022-07-23T06:57:30;22.02;;;19.73;;
38785;SDS011;24535;45.508;12.252;2022-07-23T06:59:58;25.30;;;21.33;;
38785;SDS011;24535;45.508;12.252;2022-07-23T07:02:23;22.58;;;20.40;;
38785;SDS011;24535;45.508;12.252;2022-07-23T07:04:55;24.52;;;22.02;;
38785;SDS011;24535;45.508;12.252;2022-07-23T07:07:21;25.73;;;22.95;;
38785;SDS011;24535;45.508;12.252;2022-07-23T07:09:46;26.77;;;23.85;;
38785;SDS011;24535;45.508;12.252;2022-07-23T07:12:12;25.17;;;22.63;;
38785;SDS011;24535;45.508;12.252;2022-07-23T07:14:37;22.02;;;20.08;;
38785;SDS011;24535;45.508;12.252;2022-07-23T07:17:03;26.25;;;23.63;;
38785;SDS011;24535;45.508;12.252;2022-07-23T07:19:28;23.15;;;20.85;;
38785;SDS011;24535;45.508;12.252;2022-07-23T07:21:54;25.85;;;23.48;;
38785;SDS011;24535;45.508;12.252;2022-07-23T07:24:19;23.20;;;20.88;;
38785;SDS011;24535;45.508;12.252;2022-07-23T07:26:45;22.70;;;20.63;;
38785;SDS011;24535;45.508;12.252;2022-07-23T07:32:07;22.50;;;20.30;;
38785;SDS011;24535;45.508;12.252;2022-07-23T07:34:32;19.95;;;17.95;;
38785;SDS011;24535;45.508;12.252;2022-07-23T07:36:58;20.52;;;18.48;;
38785;SDS011;24535;45.508;12.252;2022-07-23T07:39:26;20.38;;;18.42;;
38785;SDS011;24535;45.508;12.252;2022-07-23T07:41:52;18.88;;;17.20;;
38785;SDS011;24535;45.508;12.252;2022-07-23T07:44:18;18.73;;;16.88;;
38785;SDS011;24535;45.508;12.252;2022-07-23T07:46:44;18.35;;;16.55;;
38785;SDS011;24535;45.508;12.252;2022-07-23T07:49:09;19.92;;;17.83;;
38785;SDS011;24535;45.508;12.252;2022-07-23T07:51:35;18.73;;;16.20;;
38785;SDS011;24535;45.508;12.252;2022-07-23T07:54:00;21.60;;;17.90;;
38785;SDS011;24535;45.508;12.252;2022-07-23T07:56:29;17.17;;;15.57;;
38785;SDS011;24535;45.508;12.252;2022-07-23T07:58:54;18.73;;;16.40;;
38785;SDS011;24535;45.508;12.252;2022-07-23T08:07:07;17.13;;;15.43;;
38785;SDS011;24535;45.508;12.252;2022-07-23T08:09:42;15.20;;;13.80;;
38785;SDS011;24535;45.508;12.252;2022-07-23T08:12:08;14.52;;;13.35;;
38785;SDS011;24535;45.508;12.252;2022-07-23T08:14:39;14.50;;;13.10;;
38785;SDS011;24535;45.508;12.252;2022-07-23T08:17:11;13.70;;;12.40;;
38785;SDS011;24535;45.508;12.252;2022-07-23T08:19:40;13.27;;;12.02;;
38785;SDS011;24535;45.508;12.252;2022-07-23T08:22:05;14.30;;;12.55;;
38785;SDS011;24535;45.508;12.252;2022-07-23T08:24:31;13.48;;;12.27;;
38785;SDS011;24535;45.508;12.252;2022-07-23T08:26:58;14.90;;;13.27;;
38785;SDS011;24535;45.508;12.252;2022-07-23T08:29:24;13.05;;;11.75;;
38785;SDS011;24535;45.508;12.252;2022-07-23T08:31:52;15.68;;;11.65;;
38785;SDS011;24535;45.508;12.252;2022-07-23T08:34:26;12.88;;;11.77;;
38785;SDS011;24535;45.508;12.252;2022-07-23T08:40:13;11.73;;;10.48;;
38785;SDS011;24535;45.508;12.252;2022-07-23T08:42:51;13.23;;;9.93;;
38785;SDS011;24535;45.508;12.252;2022-07-23T08:45:21;12.60;;;10.00;;
38785;SDS011;24535;45.508;12.252;2022-07-23T08:50:29;11.70;;;9.10;;
38785;SDS011;24535;45.508;12.252;2022-07-23T08:52:54;9.63;;;8.65;;
38785;SDS011;24535;45.508;12.252;2022-07-23T08:55:27;15.35;;;9.57;;
38785;SDS011;24535;45.508;12.252;2022-07-23T08:57:59;10.35;;;8.40;;
38785;SDS011;24535;45.508;12.252;2022-07-23T09:00:25;12.23;;;8.95;;
38785;SDS011;24535;45.508;12.252;2022-07-23T09:02:51;9.50;;;8.70;;
38785;SDS011;24535;45.508;12.252;2022-07-23T09:05:20;12.40;;;9.32;;
38785;SDS011;24535;45.508;12.252;2022-07-23T09:11:07;9.77;;;8.97;;
38785;SDS011;24535;45.508;12.252;2022-07-23T09:13:47;11.68;;;10.43;;
38785;SDS011;24535;45.508;12.252;2022-07-23T09:18:48;10.50;;;9.63;;
38785;SDS011;24535;45.508;12.252;2022-07-23T09:21:22;10.25;;;9.27;;
38785;SDS011;24535;45.508;12.252;2022-07-23T09:26:43;14.35;;;10.73;;
38785;SDS011;24535;45.508;12.252;2022-07-23T09:34:24;14.93;;;10.57;;
38785;SDS011;24535;45.508;12.252;2022-07-23T09:36:57;11.90;;;10.23;;
38785;SDS011;24535;45.508;12.252;2022-07-23T09:39:30;12.30;;;10.77;;
38785;SDS011;24535;45.508;12.252;2022-07-23T09:41:58;12.73;;;11.52;;
38785;SDS011;24535;45.508;12.252;2022-07-23T09:44:42;14.25;;;11.77;;
38785;SDS011;24535;45.508;12.252;2022-07-23T09:47:18;12.18;;;11.05;;
38785;SDS011;24535;45.508;12.252;2022-07-23T09:52:30;17.15;;;11.05;;
38785;SDS011;24535;45.508;12.252;2022-07-23T09:54:58;12.93;;;11.60;;
38785;SDS011;24535;45.508;12.252;2022-07-23T09:57:25;12.07;;;10.98;;
38785;SDS011;24535;45.508;12.252;2022-07-23T10:02:28;11.60;;;9.63;;
38785;SDS011;24535;45.508;12.252;2022-07-23T10:05:15;12.00;;;10.57;;
38785;SDS011;24535;45.508;12.252;2022-07-23T10:07:41;11.52;;;10.32;;
38785;SDS011;24535;45.508;12.252;2022-07-23T10:10:08;12.95;;;10.60;;
38785;SDS011;24535;45.508;12.252;2022-07-23T10:12:35;13.52;;;9.85;;
38785;SDS011;24535;45.508;12.252;2022-07-23T10:15:31;11.07;;;9.93;;
38785;SDS011;24535;45.508;12.252;2022-07-23T10:18:00;10.63;;;9.63;;
38785;SDS011;24535;45.508;12.252;2022-07-23T10:20:25;10.23;;;8.85;;
38785;SDS011;24535;45.508;12.252;2022-07-23T10:23:10;9.77;;;8.85;;
38785;SDS011;24535;45.508;12.252;2022-07-23T10:25:46;9.15;;;6.95;;
38785;SDS011;24535;45.508;12.252;2022-07-23T10:31:17;8.70;;;7.90;;
38785;SDS011;24535;45.508;12.252;2022-07-23T10:34:12;8.30;;;7.60;;
38785;SDS011;24535;45.508;12.252;2022-07-23T10:36:56;8.32;;;7.50;;
38785;SDS011;24535;45.508;12.252;2022-07-23T10:39:40;8.25;;;7.10;;
38785;SDS011;24535;45.508;12.252;2022-07-23T10:42:12;7.65;;;6.97;;
38785;SDS011;24535;45.508;12.252;2022-07-23T10:44:48;7.07;;;6.32;;
38785;SDS011;24535;45.508;12.252;2022-07-23T10:47:32;9.45;;;7.00;;
38785;SDS011;24535;45.508;12.252;2022-07-23T10:50:29;7.30;;;6.57;;
38785;SDS011;24535;45.508;12.252;2022-07-23T10:55:43;8.60;;;7.25;;
38785;SDS011;24535;45.508;12.252;2022-07-23T10:58:11;8.00;;;7.18;;
38785;SDS011;24535;45.508;12.252;2022-07-23T11:00:43;8.80;;;7.72;;
38785;SDS011;24535;45.508;12.252;2022-07-23T11:05:57;12.25;;;7.57;;
38785;SDS011;24535;45.508;12.252;2022-07-23T11:08:29;8.80;;;8.00;;
38785;SDS011;24535;45.508;12.252;2022-07-23T11:13:45;12.48;;;10.23;;
38785;SDS011;24535;45.508;12.252;2022-07-23T11:16:16;14.95;;;13.43;;
38785;SDS011;24535;45.508;12.252;2022-07-23T11:24:05;16.88;;;15.05;;
38785;SDS011;24535;45.508;12.252;2022-07-23T11:34:44;15.88;;;13.40;;
38785;SDS011;24535;45.508;12.252;2022-07-23T11:37:27;20.27;;;15.65;;
38785;SDS011;24535;45.508;12.252;2022-07-23T11:39:59;20.23;;;14.65;;
38785;SDS011;24535;45.508;12.252;2022-07-23T11:42:26;16.67;;;14.98;;
38785;SDS011;24535;45.508;12.252;2022-07-23T11:44:51;14.93;;;13.43;;
38785;SDS011;24535;45.508;12.252;2022-07-23T11:47:24;16.42;;;14.73;;
38785;SDS011;24535;45.508;12.252;2022-07-23T11:56:12;15.02;;;13.63;;
38785;SDS011;24535;45.508;12.252;2022-07-23T11:58:37;13.77;;;12.38;;
38785;SDS011;24535;45.508;12.252;2022-07-23T12:01:10;13.93;;;12.52;;
38785;SDS011;24535;45.508;12.252;2022-07-23T12:03:36;12.45;;;11.45;;
38785;SDS011;24535;45.508;12.252;2022-07-23T12:06:01;13.57;;;12.18;;
38785;SDS011;24535;45.508;12.252;2022-07-23T12:08:27;14.52;;;13.00;;
38785;SDS011;24535;45.508;12.252;2022-07-23T12:10:52;14.30;;;12.88;;
38785;SDS011;24535;45.508;12.252;2022-07-23T12:13:18;14.20;;;12.75;;
38785;SDS011;24535;45.508;12.252;2022-07-23T12:15:52;14.15;;;11.95;;
38785;SDS011;24535;45.508;12.252;2022-07-23T12:18:30;13.18;;;11.43;;
38785;SDS011;24535;45.508;12.252;2022-07-23T12:20:57;13.80;;;11.73;;
38785;SDS011;24535;45.508;12.252;2022-07-23T12:23:31;12.57;;;11.40;;
38785;SDS011;24535;45.508;12.252;2022-07-23T12:26:00;11.90;;;10.88;;
38785;SDS011;24535;45.508;12.252;2022-07-23T12:28:27;12.88;;;11.63;;
38785;SDS011;24535;45.508;12.252;2022-07-23T12:30:54;11.70;;;10.57;;
38785;SDS011;24535;45.508;12.252;2022-07-23T12:36:09;12.15;;;10.90;;
38785;SDS011;24535;45.508;12.252;2022-07-23T12:38:59;12.25;;;11.10;;
38785;SDS011;24535;45.508;12.252;2022-07-23T12:41:27;14.32;;;11.73;;
38785;SDS011;24535;45.508;12.252;2022-07-23T12:44:22;12.85;;;11.52;;
38785;SDS011;24535;45.508;12.252;2022-07-23T12:46:51;13.93;;;12.45;;
38785;SDS011;24535;45.508;12.252;2022-07-23T12:49:27;13.35;;;11.90;;
38785;SDS011;24535;45.508;12.252;2022-07-23T12:51:53;13.38;;;11.52;;
38785;SDS011;24535;45.508;12.252;2022-07-23T12:54:19;13.35;;;12.00;;
38785;SDS011;24535;45.508;12.252;2022-07-23T12:56:53;12.85;;;11.77;;
38785;SDS011;24535;45.508;12.252;2022-07-23T12:59:21;14.00;;;12.57;;
38785;SDS011;24535;45.508;12.252;2022-07-23T13:01:56;14.32;;;12.95;;
38785;SDS011;24535;45.508;12.252;2022-07-23T13:04:24;17.73;;;13.85;;
38785;SDS011;24535;45.508;12.252;2022-07-23T13:09:21;16.08;;;14.38;;
38785;SDS011;24535;45.508;12.252;2022-07-23T13:11:53;15.70;;;14.07;;
38785;SDS011;24535;45.508;12.252;2022-07-23T13:14:20;14.93;;;13.43;;
38785;SDS011;24535;45.508;12.252;2022-07-23T13:16:47;13.82;;;12.63;;
38785;SDS011;24535;45.508;12.252;2022-07-23T13:19:21;14.50;;;13.20;;
38785;SDS011;24535;45.508;12.252;2022-07-23T13:21:47;13.82;;;12.55;;
38785;SDS011;24535;45.508;12.252;2022-07-23T13:24:13;14.80;;;13.30;;
38785;SDS011;24535;45.508;12.252;2022-07-23T13:26:47;15.30;;;12.13;;
38785;SDS011;24535;45.508;12.252;2022-07-23T13:31:52;13.50;;;10.05;;
38785;SDS011;24535;45.508;12.252;2022-07-23T13:34:18;12.60;;;11.30;;
38785;SDS011;24535;45.508;12.252;2022-07-23T13:36:50;12.57;;;11.25;;
38785;SDS011;24535;45.508;12.252;2022-07-23T13:39:16;12.38;;;10.88;;
38785;SDS011;24535;45.508;12.252;2022-07-23T13:41:44;12.82;;;11.52;;
38785;SDS011;24535;45.508;12.252;2022-07-23T13:44:10;13.60;;;12.43;;
38785;SDS011;24535;45.508;12.252;2022-07-23T13:46:36;13.15;;;10.77;;
38785;SDS011;24535;45.508;12.252;2022-07-23T14:30:22;7.88;;;6.30;;
38785;SDS011;24535;45.508;12.252;2022-07-23T14:32:48;12.45;;;7.90;;
38785;SDS011;24535;45.508;12.252;2022-07-23T14:35:15;7.57;;;6.78;;
38785;SDS011;24535;45.508;12.252;2022-07-23T14:37:44;8.45;;;7.40;;
38785;SDS011;24535;45.508;12.252;2022-07-23T14:40:09;8.02;;;7.22;;
38785;SDS011;24535;45.508;12.252;2022-07-23T14:42:38;8.43;;;7.63;;
38785;SDS011;24535;45.508;12.252;2022-07-23T14:45:07;7.85;;;6.43;;
38785;SDS011;24535;45.508;12.252;2022-07-23T14:49:58;6.35;;;5.75;;
38785;SDS011;24535;45.508;12.252;2022-07-23T14:52:23;4.70;;;3.65;;
38785;SDS011;24535;45.508;12.252;2022-07-23T14:54:49;5.75;;;3.95;;
38785;SDS011;24535;45.508;12.252;2022-07-23T14:57:14;4.43;;;3.97;;
38785;SDS011;24535;45.508;12.252;2022-07-23T14:59:40;5.45;;;3.20;;
38785;SDS011;24535;45.508;12.252;2022-07-23T15:02:07;5.43;;;3.85;;
38785;SDS011;24535;45.508;12.252;2022-07-23T15:04:32;5.60;;;5.10;;
38785;SDS011;24535;45.508;12.252;2022-07-23T15:06:58;5.32;;;4.82;;
38785;SDS011;24535;45.508;12.252;2022-07-23T15:09:24;5.30;;;4.32;;
38785;SDS011;24535;45.508;12.252;2022-07-23T15:11:49;4.22;;;3.83;;
38785;SDS011;24535;45.508;12.252;2022-07-23T15:14:18;4.78;;;2.90;;
38785;SDS011;24535;45.508;12.252;2022-07-23T15:16:43;3.97;;;3.15;;
38785;SDS011;24535;45.508;12.252;2022-07-23T15:19:09;5.25;;;3.92;;
38785;SDS011;24535;45.508;12.252;2022-07-23T15:21:35;3.83;;;3.05;;
38785;SDS011;24535;45.508;12.252;2022-07-23T15:24:09;3.75;;;3.17;;
38785;SDS011;24535;45.508;12.252;2022-07-23T15:26:46;4.95;;;3.30;;
38785;SDS011;24535;45.508;12.252;2022-07-23T15:29:21;3.97;;;3.42;;
38785;SDS011;24535;45.508;12.252;2022-07-23T15:31:47;7.30;;;3.17;;
38785;SDS011;24535;45.508;12.252;2022-07-23T15:34:19;4.57;;;3.17;;
38785;SDS011;24535;45.508;12.252;2022-07-23T15:36:44;3.83;;;3.42;;
38785;SDS011;24535;45.508;12.252;2022-07-23T15:39:10;3.88;;;3.22;;
38785;SDS011;24535;45.508;12.252;2022-07-23T15:45:01;3.65;;;2.92;;
38785;SDS011;24535;45.508;12.252;2022-07-23T15:47:27;4.95;;;3.50;;
38785;SDS011;24535;45.508;12.252;2022-07-23T15:49:52;6.45;;;3.13;;
38785;SDS011;24535;45.508;12.252;2022-07-23T15:55:49;4.50;;;3.03;;
38785;SDS011;24535;45.508;12.252;2022-07-23T15:58:14;4.07;;;2.88;;
38785;SDS011;24535;45.508;12.252;2022-07-23T16:00:40;5.20;;;2.80;;
38785;SDS011;24535;45.508;12.252;2022-07-23T16:03:06;4.00;;;2.63;;
38785;SDS011;24535;45.508;12.252;2022-07-23T16:05:32;4.85;;;3.10;;
38785;SDS011;24535;45.508;12.252;2022-07-23T16:07:58;6.97;;;3.00;;
38785;SDS011;24535;45.508;12.252;2022-07-23T16:10:24;3.45;;;2.72;;
38785;SDS011;24535;45.508;12.252;2022-07-23T16:12:53;4.07;;;2.85;;
38785;SDS011;24535;45.508;12.252;2022-07-23T16:15:18;4.40;;;3.10;;
38785;SDS011;24535;45.508;12.252;2022-07-23T16:17:44;6.95;;;3.28;;
38785;SDS011;24535;45.508;12.252;2022-07-23T16:20:10;3.58;;;2.78;;
38785;SDS011;24535;45.508;12.252;2022-07-23T16:22:36;6.35;;;2.58;;
38785;SDS011;24535;45.508;12.252;2022-07-23T16:28:07;4.60;;;2.63;;
38785;SDS011;24535;45.508;12.252;2022-07-23T16:30:33;4.07;;;2.80;;
38785;SDS011;24535;45.508;12.252;2022-07-23T16:33:08;3.60;;;2.67;;
38785;SDS011;24535;45.508;12.252;2022-07-23T16:35:34;3.63;;;2.88;;
38785;SDS011;24535;45.508;12.252;2022-07-23T16:40:51;5.50;;;2.65;;
38785;SDS011;24535;45.508;12.252;2022-07-23T17:01:19;4.43;;;2.20;;
38785;SDS011;24535;45.508;12.252;2022-07-23T17:03:44;3.00;;;2.30;;
38785;SDS011;24535;45.508;12.252;2022-07-23T17:06:10;3.92;;;2.28;;
38785;SDS011;24535;45.508;12.252;2022-07-23T17:08:49;3.25;;;2.22;;
38785;SDS011;24535;45.508;12.252;2022-07-23T17:11:14;6.50;;;2.28;;
38785;SDS011;24535;45.508;12.252;2022-07-23T17:13:40;3.25;;;2.53;;
38785;SDS011;24535;45.508;12.252;2022-07-23T17:16:05;5.72;;;2.15;;